Terminal Aerodrome Forecast
Issued by NWS Bismarck, ND

Home | Current Version | Previous Version | Text Only | Print | Product List | Glossary Off
Versions: 1 2 3 4 5 6 7 8 9 10 11 12 13 14 15 16

000
FTUS43 KBIS 221100
TAFISN
TAF
KISN 221135Z 2212/2312 08005KT P6SM SCT180 BKN250
     FM221400 13014G19KT P6SM SCT170 BKN250
     FM221600 13019G27KT P6SM FEW150 SCT250
     FM230200 12018G25KT P6SM BKN120
     FM230800 11016G23KT P6SM -SHRA BKN090 BKN110=

USA.gov is the U.S. government's official web portal to all federal, state and local government web resources and services.